sensor_id;sensor_type;location;lat;lon;timestamp;temperature;humidity
5027;DHT22;2532;52.480;13.354;2023-03-23T05:00:57;14.00;91.90
5027;DHT22;2532;52.480;13.354;2023-03-23T05:03:27;14.00;91.80
5027;DHT22;2532;52.480;13.354;2023-03-23T05:06:01;13.90;91.90
5027;DHT22;2532;52.480;13.354;2023-03-23T05:08:28;13.90;91.80
5027;DHT22;2532;52.480;13.354;2023-03-23T05:11:00;13.90;92.00
5027;DHT22;2532;52.480;13.354;2023-03-23T05:13:29;13.90;92.10
5027;DHT22;2532;52.480;13.354;2023-03-23T05:19:35;13.90;92.50
5027;DHT22;2532;52.480;13.354;2023-03-23T05:22:12;13.90;92.60
5027;DHT22;2532;52.480;13.354;2023-03-23T05:24:55;13.80;92.80
5027;DHT22;2532;52.480;13.354;2023-03-23T05:27:28;13.80;92.90
5027;DHT22;2532;52.480;13.354;2023-03-23T05:30:02;13.80;93.10
5027;DHT22;2532;52.480;13.354;2023-03-23T05:32:41;13.70;93.00
5027;DHT22;2532;52.480;13.354;2023-03-23T05:35:18;13.70;93.30
5027;DHT22;2532;52.480;13.354;2023-03-23T05:37:46;13.70;93.30
5027;DHT22;2532;52.480;13.354;2023-03-23T05:40:15;13.70;93.50
5027;DHT22;2532;52.480;13.354;2023-03-23T05:42:47;13.70;93.60
5027;DHT22;2532;52.480;13.354;2023-03-23T05:45:20;13.60;93.70
5027;DHT22;2532;52.480;13.354;2023-03-23T05:47:53;13.60;94.00
5027;DHT22;2532;52.480;13.354;2023-03-23T05:50:26;13.50;94.20
5027;DHT22;2532;52.480;13.354;2023-03-23T05:52:56;13.50;94.40
5027;DHT22;2532;52.480;13.354;2023-03-23T05:55:26;13.50;94.80
5027;DHT22;2532;52.480;13.354;2023-03-23T05:57:58;13.40;95.00
5027;DHT22;2532;52.480;13.354;2023-03-23T06:00:27;13.40;95.40
5027;DHT22;2532;52.480;13.354;2023-03-23T06:03:00;13.40;95.50
5027;DHT22;2532;52.480;13.354;2023-03-23T06:08:59;13.30;96.10
5027;DHT22;2532;52.480;13.354;2023-03-23T06:11:29;13.20;96.50
5027;DHT22;2532;52.480;13.354;2023-03-23T06:14:10;13.20;96.60
5027;DHT22;2532;52.480;13.354;2023-03-23T06:16:38;13.20;96.90
5027;DHT22;2532;52.480;13.354;2023-03-23T06:19:05;13.20;97.10
5027;DHT22;2532;52.480;13.354;2023-03-23T06:21:32;13.10;97.20
5027;DHT22;2532;52.480;13.354;2023-03-23T06:24:01;13.10;97.40
5027;DHT22;2532;52.480;13.354;2023-03-23T06:26:31;13.00;97.70
5027;DHT22;2532;52.480;13.354;2023-03-23T06:28:59;13.00;97.70
5027;DHT22;2532;52.480;13.354;2023-03-23T06:31:27;13.00;97.90
5027;DHT22;2532;52.480;13.354;2023-03-23T06:33:54;13.00;98.10
5027;DHT22;2532;52.480;13.354;2023-03-23T06:36:22;12.90;98.10
5027;DHT22;2532;52.480;13.354;2023-03-23T06:38:49;12.90;98.30
5027;DHT22;2532;52.480;13.354;2023-03-23T06:41:17;12.90;98.60
5027;DHT22;2532;52.480;13.354;2023-03-23T06:43:44;12.90;98.60
5027;DHT22;2532;52.480;13.354;2023-03-23T06:46:11;12.90;99.00
5027;DHT22;2532;52.480;13.354;2023-03-23T06:48:38;12.90;98.80
5027;DHT22;2532;52.480;13.354;2023-03-23T06:51:06;12.80;98.80
5027;DHT22;2532;52.480;13.354;2023-03-23T06:53:33;12.90;99.00
5027;DHT22;2532;52.480;13.354;2023-03-23T06:56:03;12.90;99.20
5027;DHT22;2532;52.480;13.354;2023-03-23T06:58:32;12.90;99.30
5027;DHT22;2532;52.480;13.354;2023-03-23T07:00:59;12.90;99.30
5027;DHT22;2532;52.480;13.354;2023-03-23T07:03:26;12.90;99.10
5027;DHT22;2532;52.480;13.354;2023-03-23T07:05:53;13.00;99.20
5027;DHT22;2532;52.480;13.354;2023-03-23T07:08:20;13.00;99.30
5027;DHT22;2532;52.480;13.354;2023-03-23T07:10:50;13.10;99.30
5027;DHT22;2532;52.480;13.354;2023-03-23T07:13:18;13.10;99.30
5027;DHT22;2532;52.480;13.354;2023-03-23T07:15:47;13.10;99.40
5027;DHT22;2532;52.480;13.354;2023-03-23T07:18:16;13.10;99.40
5027;DHT22;2532;52.480;13.354;2023-03-23T07:20:46;13.10;99.40
5027;DHT22;2532;52.480;13.354;2023-03-23T07:23:13;13.10;99.40
5027;DHT22;2532;52.480;13.354;2023-03-23T07:25:40;13.20;99.50
5027;DHT22;2532;52.480;13.354;2023-03-23T07:28:07;13.20;99.50
5027;DHT22;2532;52.480;13.354;2023-03-23T07:30:34;13.20;99.50
5027;DHT22;2532;52.480;13.354;2023-03-23T07:33:06;13.20;99.60
5027;DHT22;2532;52.480;13.354;2023-03-23T07:35:33;13.20;99.60
5027;DHT22;2532;52.480;13.354;2023-03-23T07:38:01;13.20;99.70
5027;DHT22;2532;52.480;13.354;2023-03-23T07:40:30;13.20;99.70
5027;DHT22;2532;52.480;13.354;2023-03-23T07:43:00;13.20;99.80
5027;DHT22;2532;52.480;13.354;2023-03-23T07:45:27;13.20;99.80
5027;DHT22;2532;52.480;13.354;2023-03-23T07:47:55;13.20;99.80
5027;DHT22;2532;52.480;13.354;2023-03-23T07:50:24;13.20;99.90
5027;DHT22;2532;52.480;13.354;2023-03-23T07:52:53;13.30;99.90
5027;DHT22;2532;52.480;13.354;2023-03-23T07:55:20;13.30;99.80
5027;DHT22;2532;52.480;13.354;2023-03-23T07:57:51;13.30;99.80
5027;DHT22;2532;52.480;13.354;2023-03-23T08:00:20;13.30;99.70
5027;DHT22;2532;52.480;13.354;2023-03-23T08:02:50;13.30;99.70
5027;DHT22;2532;52.480;13.354;2023-03-23T08:05:18;13.30;99.80
5027;DHT22;2532;52.480;13.354;2023-03-23T08:07:47;13.30;99.60
5027;DHT22;2532;52.480;13.354;2023-03-23T08:10:16;13.30;99.50
5027;DHT22;2532;52.480;13.354;2023-03-23T08:12:44;13.40;99.60
5027;DHT22;2532;52.480;13.354;2023-03-23T08:15:12;13.40;99.90
5027;DHT22;2532;52.480;13.354;2023-03-23T08:17:41;13.50;99.50
5027;DHT22;2532;52.480;13.354;2023-03-23T08:20:09;13.50;99.20
5027;DHT22;2532;52.480;13.354;2023-03-23T08:22:39;13.50;99.20
5027;DHT22;2532;52.480;13.354;2023-03-23T08:25:10;13.50;99.10
5027;DHT22;2532;52.480;13.354;2023-03-23T08:27:38;13.50;98.80
5027;DHT22;2532;52.480;13.354;2023-03-23T08:30:10;13.50;98.90
5027;DHT22;2532;52.480;13.354;2023-03-23T08:32:37;13.50;99.00
5027;DHT22;2532;52.480;13.354;2023-03-23T08:35:06;13.50;99.00
5027;DHT22;2532;52.480;13.354;2023-03-23T08:37:34;13.60;99.00
5027;DHT22;2532;52.480;13.354;2023-03-23T08:40:02;13.60;98.90
5027;DHT22;2532;52.480;13.354;2023-03-23T08:42:36;13.60;98.90
5027;DHT22;2532;52.480;13.354;2023-03-23T08:45:04;13.70;98.80
5027;DHT22;2532;52.480;13.354;2023-03-23T08:47:32;13.60;98.90
5027;DHT22;2532;52.480;13.354;2023-03-23T08:49:59;13.60;98.70
5027;DHT22;2532;52.480;13.354;2023-03-23T08:52:27;13.70;99.20
5027;DHT22;2532;52.480;13.354;2023-03-23T08:54:55;13.70;98.70
5027;DHT22;2532;52.480;13.354;2023-03-23T08:57:22;13.70;98.70
5027;DHT22;2532;52.480;13.354;2023-03-23T08:59:51;13.70;98.70
5027;DHT22;2532;52.480;13.354;2023-03-23T09:02:20;13.80;98.70
5027;DHT22;2532;52.480;13.354;2023-03-23T09:04:49;13.80;98.80
5027;DHT22;2532;52.480;13.354;2023-03-23T09:07:16;13.90;98.70
5027;DHT22;2532;52.480;13.354;2023-03-23T09:09:43;13.90;98.70
5027;DHT22;2532;52.480;13.354;2023-03-23T09:12:10;14.00;98.60
5027;DHT22;2532;52.480;13.354;2023-03-23T09:14:38;14.00;98.40
5027;DHT22;2532;52.480;13.354;2023-03-23T09:17:06;14.10;98.40
5027;DHT22;2532;52.480;13.354;2023-03-23T09:19:34;14.10;98.20
5027;DHT22;2532;52.480;13.354;2023-03-23T09:22:02;14.10;98.30
5027;DHT22;2532;52.480;13.354;2023-03-23T09:24:29;14.20;98.30
5027;DHT22;2532;52.480;13.354;2023-03-23T09:26:56;14.30;98.10
5027;DHT22;2532;52.480;13.354;2023-03-23T09:29:24;14.30;98.10
5027;DHT22;2532;52.480;13.354;2023-03-23T09:31:52;14.40;98.20
5027;DHT22;2532;52.480;13.354;2023-03-23T09:34:20;14.40;97.90
5027;DHT22;2532;52.480;13.354;2023-03-23T09:36:48;14.50;97.80
5027;DHT22;2532;52.480;13.354;2023-03-23T09:39:15;14.60;97.50
5027;DHT22;2532;52.480;13.354;2023-03-23T09:41:58;14.60;97.40
5027;DHT22;2532;52.480;13.354;2023-03-23T09:44:31;14.70;97.40
5027;DHT22;2532;52.480;13.354;2023-03-23T09:47:12;14.70;97.20
5027;DHT22;2532;52.480;13.354;2023-03-23T09:49:48;14.80;97.20
5027;DHT22;2532;52.480;13.354;2023-03-23T09:52:18;14.90;97.00
5027;DHT22;2532;52.480;13.354;2023-03-23T09:54:47;14.90;96.80
5027;DHT22;2532;52.480;13.354;2023-03-23T10:00:03;15.00;96.50
5027;DHT22;2532;52.480;13.354;2023-03-23T10:02:38;15.10;96.40
5027;DHT22;2532;52.480;13.354;2023-03-23T10:05:26;15.20;96.10
5027;DHT22;2532;52.480;13.354;2023-03-23T10:07:55;15.20;95.90
5027;DHT22;2532;52.480;13.354;2023-03-23T10:10:29;15.20;95.70
5027;DHT22;2532;52.480;13.354;2023-03-23T10:13:01;15.20;95.80
5027;DHT22;2532;52.480;13.354;2023-03-23T10:15:33;15.30;95.60
5027;DHT22;2532;52.480;13.354;2023-03-23T10:18:04;15.30;95.50
5027;DHT22;2532;52.480;13.354;2023-03-23T10:20:43;15.30;95.20
5027;DHT22;2532;52.480;13.354;2023-03-23T10:23:20;15.40;95.20
5027;DHT22;2532;52.480;13.354;2023-03-23T10:25:52;15.40;95.30
5027;DHT22;2532;52.480;13.354;2023-03-23T10:28:32;15.50;95.20
5027;DHT22;2532;52.480;13.354;2023-03-23T10:31:01;15.60;94.90
5027;DHT22;2532;52.480;13.354;2023-03-23T10:33:34;15.60;94.80
5027;DHT22;2532;52.480;13.354;2023-03-23T10:36:07;15.60;94.70
5027;DHT22;2532;52.480;13.354;2023-03-23T10:38:38;15.70;94.70
5027;DHT22;2532;52.480;13.354;2023-03-23T10:41:10;15.70;94.70
5027;DHT22;2532;52.480;13.354;2023-03-23T10:43:38;15.70;94.60
5027;DHT22;2532;52.480;13.354;2023-03-23T10:46:18;15.70;94.40
5027;DHT22;2532;52.480;13.354;2023-03-23T10:48:49;15.80;94.50
5027;DHT22;2532;52.480;13.354;2023-03-23T10:51:22;15.90;94.10
5027;DHT22;2532;52.480;13.354;2023-03-23T10:53:51;15.90;94.20
5027;DHT22;2532;52.480;13.354;2023-03-23T10:56:25;15.90;94.20
5027;DHT22;2532;52.480;13.354;2023-03-23T10:58:52;15.90;94.00
5027;DHT22;2532;52.480;13.354;2023-03-23T11:01:29;15.90;93.80
5027;DHT22;2532;52.480;13.354;2023-03-23T11:03:57;15.90;93.60
5027;DHT22;2532;52.480;13.354;2023-03-23T11:06:29;15.90;93.50
5027;DHT22;2532;52.480;13.354;2023-03-23T11:09:01;15.90;93.50
5027;DHT22;2532;52.480;13.354;2023-03-23T11:11:31;15.90;93.50
5027;DHT22;2532;52.480;13.354;2023-03-23T11:14:00;15.90;93.60
5027;DHT22;2532;52.480;13.354;2023-03-23T11:16:29;15.90;93.60
5027;DHT22;2532;52.480;13.354;2023-03-23T11:18:58;16.00;93.60
5027;DHT22;2532;52.480;13.354;2023-03-23T11:21:27;16.10;93.50
5027;DHT22;2532;52.480;13.354;2023-03-23T11:23:57;16.10;93.10
5027;DHT22;2532;52.480;13.354;2023-03-23T11:26:26;16.10;93.20
5027;DHT22;2532;52.480;13.354;2023-03-23T11:28:58;16.10;92.80
5027;DHT22;2532;52.480;13.354;2023-03-23T11:31:30;16.20;92.90
5027;DHT22;2532;52.480;13.354;2023-03-23T11:34:02;16.20;92.70
5027;DHT22;2532;52.480;13.354;2023-03-23T11:36:35;16.20;92.50
5027;DHT22;2532;52.480;13.354;2023-03-23T11:39:02;16.20;92.70
5027;DHT22;2532;52.480;13.354;2023-03-23T11:41:33;16.30;92.80
5027;DHT22;2532;52.480;13.354;2023-03-23T11:44:08;16.40;92.80
5027;DHT22;2532;52.480;13.354;2023-03-23T11:46:43;16.40;92.50
5027;DHT22;2532;52.480;13.354;2023-03-23T11:49:20;16.50;92.50
5027;DHT22;2532;52.480;13.354;2023-03-23T11:51:51;16.60;92.20
5027;DHT22;2532;52.480;13.354;2023-03-23T11:54:31;16.70;92.10
5027;DHT22;2532;52.480;13.354;2023-03-23T11:56:59;16.70;92.10
5027;DHT22;2532;52.480;13.354;2023-03-23T11:59:28;16.70;91.80
5027;DHT22;2532;52.480;13.354;2023-03-23T12:02:01;16.70;91.60
5027;DHT22;2532;52.480;13.354;2023-03-23T12:04:58;16.70;91.60
5027;DHT22;2532;52.480;13.354;2023-03-23T12:07:46;16.70;91.80
5027;DHT22;2532;52.480;13.354;2023-03-23T12:10:25;16.80;91.30
5027;DHT22;2532;52.480;13.354;2023-03-23T12:13:04;16.80;91.30
5027;DHT22;2532;52.480;13.354;2023-03-23T12:15:38;16.80;91.30
5027;DHT22;2532;52.480;13.354;2023-03-23T12:18:12;16.80;91.20
5027;DHT22;2532;52.480;13.354;2023-03-23T12:20:51;16.70;90.90
5027;DHT22;2532;52.480;13.354;2023-03-23T12:23:25;16.70;91.00
5027;DHT22;2532;52.480;13.354;2023-03-23T12:26:11;16.70;90.90
5027;DHT22;2532;52.480;13.354;2023-03-23T12:28:59;16.70;90.80
5027;DHT22;2532;52.480;13.354;2023-03-23T12:31:33;16.70;90.90
5027;DHT22;2532;52.480;13.354;2023-03-23T12:34:10;16.70;90.90
5027;DHT22;2532;52.480;13.354;2023-03-23T12:36:51;16.80;90.90
5027;DHT22;2532;52.480;13.354;2023-03-23T12:39:44;16.80;90.80
5027;DHT22;2532;52.480;13.354;2023-03-23T12:42:21;16.90;90.50
5027;DHT22;2532;52.480;13.354;2023-03-23T12:45:11;16.90;90.30
5027;DHT22;2532;52.480;13.354;2023-03-23T12:47:46;16.90;90.30
5027;DHT22;2532;52.480;13.354;2023-03-23T12:50:16;16.80;90.30
5027;DHT22;2532;52.480;13.354;2023-03-23T12:52:50;16.90;90.40
5027;DHT22;2532;52.480;13.354;2023-03-23T12:55:25;16.90;90.40
5027;DHT22;2532;52.480;13.354;2023-03-23T12:57:57;17.00;90.10
5027;DHT22;2532;52.480;13.354;2023-03-23T13:00:28;17.00;90.10
5027;DHT22;2532;52.480;13.354;2023-03-23T13:03:01;17.10;90.00
5027;DHT22;2532;52.480;13.354;2023-03-23T13:05:36;17.20;90.00
5027;DHT22;2532;52.480;13.354;2023-03-23T13:08:11;17.30;90.00
5027;DHT22;2532;52.480;13.354;2023-03-23T13:10:44;17.40;89.60
5027;DHT22;2532;52.480;13.354;2023-03-23T13:13:16;17.60;89.30
5027;DHT22;2532;52.480;13.354;2023-03-23T13:15:51;17.70;89.30
5027;DHT22;2532;52.480;13.354;2023-03-23T13:18:30;17.80;88.60
5027;DHT22;2532;52.480;13.354;2023-03-23T13:21:08;17.80;88.10
5027;DHT22;2532;52.480;13.354;2023-03-23T13:23:41;17.80;88.00
5027;DHT22;2532;52.480;13.354;2023-03-23T13:26:13;17.90;87.40
5027;DHT22;2532;52.480;13.354;2023-03-23T13:28:59;17.90;87.40
5027;DHT22;2532;52.480;13.354;2023-03-23T13:31:28;17.90;87.40
5027;DHT22;2532;52.480;13.354;2023-03-23T13:34:03;17.70;85.90
5027;DHT22;2532;52.480;13.354;2023-03-23T13:36:34;17.80;86.80
5027;DHT22;2532;52.480;13.354;2023-03-23T13:39:05;17.90;87.10
5027;DHT22;2532;52.480;13.354;2023-03-23T13:41:46;18.00;86.60
5027;DHT22;2532;52.480;13.354;2023-03-23T13:44:18;18.10;85.50
5027;DHT22;2532;52.480;13.354;2023-03-23T13:47:04;18.20;84.70
5027;DHT22;2532;52.480;13.354;2023-03-23T13:49:32;18.30;83.00
5027;DHT22;2532;52.480;13.354;2023-03-23T13:52:15;18.30;83.30
5027;DHT22;2532;52.480;13.354;2023-03-23T13:54:45;18.30;82.90
5027;DHT22;2532;52.480;13.354;2023-03-23T13:57:34;18.40;83.30
5027;DHT22;2532;52.480;13.354;2023-03-23T14:00:24;18.50;82.70
5027;DHT22;2532;52.480;13.354;2023-03-23T14:02:59;18.60;81.20
5027;DHT22;2532;52.480;13.354;2023-03-23T14:05:38;18.70;80.60
5027;DHT22;2532;52.480;13.354;2023-03-23T14:08:20;18.70;79.70
5027;DHT22;2532;52.480;13.354;2023-03-23T14:10:52;18.70;79.90
5027;DHT22;2532;52.480;13.354;2023-03-23T14:13:25;18.90;79.50
5027;DHT22;2532;52.480;13.354;2023-03-23T14:15:58;19.00;79.10
5027;DHT22;2532;52.480;13.354;2023-03-23T14:18:31;19.00;79.10
5027;DHT22;2532;52.480;13.354;2023-03-23T14:20:59;19.00;79.10
5027;DHT22;2532;52.480;13.354;2023-03-23T14:23:26;19.10;79.20
5027;DHT22;2532;52.480;13.354;2023-03-23T14:25:59;19.10;78.70
5027;DHT22;2532;52.480;13.354;2023-03-23T14:28:37;19.20;78.70
5027;DHT22;2532;52.480;13.354;2023-03-23T14:31:09;19.20;78.70
5027;DHT22;2532;52.480;13.354;2023-03-23T14:33:40;19.10;78.80
5027;DHT22;2532;52.480;13.354;2023-03-23T14:36:08;19.00;78.80
5027;DHT22;2532;52.480;13.354;2023-03-23T14:38:36;18.80;79.00
5027;DHT22;2532;52.480;13.354;2023-03-23T14:41:09;18.70;79.60
5027;DHT22;2532;52.480;13.354;2023-03-23T14:43:40;18.60;80.10
5027;DHT22;2532;52.480;13.354;2023-03-23T14:46:08;18.50;80.40
5027;DHT22;2532;52.480;13.354;2023-03-23T14:48:38;18.50;80.60
5027;DHT22;2532;52.480;13.354;2023-03-23T14:51:06;18.40;80.80
5027;DHT22;2532;52.480;13.354;2023-03-23T14:53:43;18.40;81.30
5027;DHT22;2532;52.480;13.354;2023-03-23T14:56:12;18.40;81.30
5027;DHT22;2532;52.480;13.354;2023-03-23T14:58:43;18.30;81.90
5027;DHT22;2532;52.480;13.354;2023-03-23T15:01:13;18.30;82.30
5027;DHT22;2532;52.480;13.354;2023-03-23T15:06:27;18.40;82.50
5027;DHT22;2532;52.480;13.354;2023-03-23T15:08:58;18.50;82.10
5027;DHT22;2532;52.480;13.354;2023-03-23T15:11:29;18.50;82.20
5027;DHT22;2532;52.480;13.354;2023-03-23T15:14:01;18.50;82.20
5027;DHT22;2532;52.480;13.354;2023-03-23T15:16:32;18.50;82.30
5027;DHT22;2532;52.480;13.354;2023-03-23T15:19:01;18.50;82.40
5027;DHT22;2532;52.480;13.354;2023-03-23T15:21:34;18.60;82.70
5027;DHT22;2532;52.480;13.354;2023-03-23T15:24:02;18.70;81.80
5027;DHT22;2532;52.480;13.354;2023-03-23T15:26:44;18.90;81.50
5027;DHT22;2532;52.480;13.354;2023-03-23T15:29:16;19.00;80.80
5027;DHT22;2532;52.480;13.354;2023-03-23T15:31:45;19.10;80.40
5027;DHT22;2532;52.480;13.354;2023-03-23T15:34:19;19.20;78.70
5027;DHT22;2532;52.480;13.354;2023-03-23T15:36:51;19.30;77.60
5027;DHT22;2532;52.480;13.354;2023-03-23T15:39:18;19.20;77.70
5027;DHT22;2532;52.480;13.354;2023-03-23T15:41:47;19.20;76.70
5027;DHT22;2532;52.480;13.354;2023-03-23T15:44:23;19.10;75.70
5027;DHT22;2532;52.480;13.354;2023-03-23T15:47:02;19.10;75.50
5027;DHT22;2532;52.480;13.354;2023-03-23T15:49:30;18.90;75.40
5027;DHT22;2532;52.480;13.354;2023-03-23T15:51:57;18.80;75.50
5027;DHT22;2532;52.480;13.354;2023-03-23T15:54:29;18.70;75.40
5027;DHT22;2532;52.480;13.354;2023-03-23T15:57:00;18.70;75.20
5027;DHT22;2532;52.480;13.354;2023-03-23T15:59:29;18.60;75.60
5027;DHT22;2532;52.480;13.354;2023-03-23T16:01:56;18.60;75.80
5027;DHT22;2532;52.480;13.354;2023-03-23T16:04:26;18.60;75.50
5027;DHT22;2532;52.480;13.354;2023-03-23T16:06:55;18.50;75.50
5027;DHT22;2532;52.480;13.354;2023-03-23T16:09:23;18.50;75.60
5027;DHT22;2532;52.480;13.354;2023-03-23T16:11:50;18.40;75.00
5027;DHT22;2532;52.480;13.354;2023-03-23T16:14:17;18.40;74.40
5027;DHT22;2532;52.480;13.354;2023-03-23T16:16:47;18.30;74.80
5027;DHT22;2532;52.480;13.354;2023-03-23T16:19:15;18.20;74.90
5027;DHT22;2532;52.480;13.354;2023-03-23T16:21:45;18.20;74.90
5027;DHT22;2532;52.480;13.354;2023-03-23T16:24:12;18.10;74.70
5027;DHT22;2532;52.480;13.354;2023-03-23T16:26:39;18.10;75.10
5027;DHT22;2532;52.480;13.354;2023-03-23T16:29:11;18.10;75.40
5027;DHT22;2532;52.480;13.354;2023-03-23T16:31:38;18.00;75.20
5027;DHT22;2532;52.480;13.354;2023-03-23T16:34:07;18.00;75.50
5027;DHT22;2532;52.480;13.354;2023-03-23T16:36:34;18.00;75.60
5027;DHT22;2532;52.480;13.354;2023-03-23T16:39:02;18.00;75.90
5027;DHT22;2532;52.480;13.354;2023-03-23T16:41:29;18.00;76.00
5027;DHT22;2532;52.480;13.354;2023-03-23T16:43:56;18.00;76.00
5027;DHT22;2532;52.480;13.354;2023-03-23T16:46:24;17.90;76.10
5027;DHT22;2532;52.480;13.354;2023-03-23T16:48:51;17.90;76.30
5027;DHT22;2532;52.480;13.354;2023-03-23T16:51:19;17.90;76.50
5027;DHT22;2532;52.480;13.354;2023-03-23T16:53:46;17.90;78.30
5027;DHT22;2532;52.480;13.354;2023-03-23T16:56:14;17.80;80.40
5027;DHT22;2532;52.480;13.354;2023-03-23T16:58:41;17.60;81.80
5027;DHT22;2532;52.480;13.354;2023-03-23T17:01:08;17.40;83.10
5027;DHT22;2532;52.480;13.354;2023-03-23T17:03:35;17.20;84.00
5027;DHT22;2532;52.480;13.354;2023-03-23T17:06:02;16.90;84.80
5027;DHT22;2532;52.480;13.354;2023-03-23T17:08:31;16.70;85.50
5027;DHT22;2532;52.480;13.354;2023-03-23T17:10:58;16.70;86.40
5027;DHT22;2532;52.480;13.354;2023-03-23T17:13:26;16.50;87.10
5027;DHT22;2532;52.480;13.354;2023-03-23T17:15:54;16.40;87.60
5027;DHT22;2532;52.480;13.354;2023-03-23T17:18:22;16.40;88.20
5027;DHT22;2532;52.480;13.354;2023-03-23T17:20:51;16.30;88.70
5027;DHT22;2532;52.480;13.354;2023-03-23T17:23:18;16.20;88.90
5027;DHT22;2532;52.480;13.354;2023-03-23T17:25:47;16.20;89.40
5027;DHT22;2532;52.480;13.354;2023-03-23T17:28:15;16.10;89.70
5027;DHT22;2532;52.480;13.354;2023-03-23T17:30:42;16.10;89.90
5027;DHT22;2532;52.480;13.354;2023-03-23T17:33:10;16.10;90.00
5027;DHT22;2532;52.480;13.354;2023-03-23T17:35:37;16.10;90.00
5027;DHT22;2532;52.480;13.354;2023-03-23T17:38:04;16.10;90.00
5027;DHT22;2532;52.480;13.354;2023-03-23T17:40:31;16.10;90.20
5027;DHT22;2532;52.480;13.354;2023-03-23T17:42:59;16.10;90.40
5027;DHT22;2532;52.480;13.354;2023-03-23T17:45:26;16.00;90.60
5027;DHT22;2532;52.480;13.354;2023-03-23T17:47:53;15.90;91.00
5027;DHT22;2532;52.480;13.354;2023-03-23T17:50:20;15.70;90.90
5027;DHT22;2532;52.480;13.354;2023-03-23T17:52:47;15.50;91.40
5027;DHT22;2532;52.480;13.354;2023-03-23T17:55:14;15.40;91.90
5027;DHT22;2532;52.480;13.354;2023-03-23T17:57:41;15.30;92.10
5027;DHT22;2532;52.480;13.354;2023-03-23T18:00:11;15.20;92.40
5027;DHT22;2532;52.480;13.354;2023-03-23T18:02:38;15.10;92.60
5027;DHT22;2532;52.480;13.354;2023-03-23T18:05:06;15.10;92.80
5027;DHT22;2532;52.480;13.354;2023-03-23T18:07:34;14.90;92.80
5027;DHT22;2532;52.480;13.354;2023-03-23T18:10:01;14.90;93.10
5027;DHT22;2532;52.480;13.354;2023-03-23T18:12:29;14.90;93.20
5027;DHT22;2532;52.480;13.354;2023-03-23T18:14:56;14.90;93.50
5027;DHT22;2532;52.480;13.354;2023-03-23T18:17:25;14.90;93.60
5027;DHT22;2532;52.480;13.354;2023-03-23T18:19:52;14.80;93.70
5027;DHT22;2532;52.480;13.354;2023-03-23T18:22:19;14.80;93.60
5027;DHT22;2532;52.480;13.354;2023-03-23T18:24:46;14.80;93.80
5027;DHT22;2532;52.480;13.354;2023-03-23T18:27:13;14.80;93.90
5027;DHT22;2532;52.480;13.354;2023-03-23T18:29:40;14.80;94.10
5027;DHT22;2532;52.480;13.354;2023-03-23T18:32:07;14.80;94.30
5027;DHT22;2532;52.480;13.354;2023-03-23T18:34:35;14.70;94.50
5027;DHT22;2532;52.480;13.354;2023-03-23T18:37:03;14.70;95.00
5027;DHT22;2532;52.480;13.354;2023-03-23T18:39:31;14.60;95.20
5027;DHT22;2532;52.480;13.354;2023-03-23T18:41:58;14.60;95.50
5027;DHT22;2532;52.480;13.354;2023-03-23T18:44:25;14.50;95.70
5027;DHT22;2532;52.480;13.354;2023-03-23T18:46:52;14.50;96.00
5027;DHT22;2532;52.480;13.354;2023-03-23T18:49:19;14.40;96.10
5027;DHT22;2532;52.480;13.354;2023-03-23T18:51:47;14.40;96.40
5027;DHT22;2532;52.480;13.354;2023-03-23T18:54:14;14.40;96.50
5027;DHT22;2532;52.480;13.354;2023-03-23T18:56:42;14.40;96.60
5027;DHT22;2532;52.480;13.354;2023-03-23T18:59:09;14.40;96.70
5027;DHT22;2532;52.480;13.354;2023-03-23T19:01:36;14.40;96.80
5027;DHT22;2532;52.480;13.354;2023-03-23T19:04:03;14.40;96.90
5027;DHT22;2532;52.480;13.354;2023-03-23T19:06:30;14.40;97.00
5027;DHT22;2532;52.480;13.354;2023-03-23T19:08:58;14.30;96.90
5027;DHT22;2532;52.480;13.354;2023-03-23T19:11:25;14.40;97.00
5027;DHT22;2532;52.480;13.354;2023-03-23T19:13:52;14.30;97.10
5027;DHT22;2532;52.480;13.354;2023-03-23T19:16:20;14.40;97.20
5027;DHT22;2532;52.480;13.354;2023-03-23T19:18:47;14.40;97.00
5027;DHT22;2532;52.480;13.354;2023-03-23T19:21:14;14.40;97.00
5027;DHT22;2532;52.480;13.354;2023-03-23T19:23:42;14.40;97.10
5027;DHT22;2532;52.480;13.354;2023-03-23T19:26:18;14.40;97.10
5027;DHT22;2532;52.480;13.354;2023-03-23T19:28:47;14.40;97.10
5027;DHT22;2532;52.480;13.354;2023-03-23T19:31:13;14.40;97.10
5027;DHT22;2532;52.480;13.354;2023-03-23T19:33:43;14.40;97.20
5027;DHT22;2532;52.480;13.354;2023-03-23T19:36:10;14.40;97.20
5027;DHT22;2532;52.480;13.354;2023-03-23T19:38:37;14.50;97.30
5027;DHT22;2532;52.480;13.354;2023-03-23T19:41:04;14.50;97.20
5027;DHT22;2532;52.480;13.354;2023-03-23T19:43:33;14.50;97.20
5027;DHT22;2532;52.480;13.354;2023-03-23T19:46:01;14.50;97.20
5027;DHT22;2532;52.480;13.354;2023-03-23T19:48:28;14.50;97.20
5027;DHT22;2532;52.480;13.354;2023-03-23T19:50:56;14.50;97.20
5027;DHT22;2532;52.480;13.354;2023-03-23T19:53:23;14.50;97.30
5027;DHT22;2532;52.480;13.354;2023-03-23T19:55:51;14.50;97.30
5027;DHT22;2532;52.480;13.354;2023-03-23T19:58:18;14.40;97.30
5027;DHT22;2532;52.480;13.354;2023-03-23T20:00:47;14.40;97.30
5027;DHT22;2532;52.480;13.354;2023-03-23T20:03:14;14.40;97.30
5027;DHT22;2532;52.480;13.354;2023-03-23T20:05:41;14.50;97.30
5027;DHT22;2532;52.480;13.354;2023-03-23T20:08:08;14.40;97.20
5027;DHT22;2532;52.480;13.354;2023-03-23T20:10:36;14.40;97.20
5027;DHT22;2532;52.480;13.354;2023-03-23T20:13:03;14.40;97.30
5027;DHT22;2532;52.480;13.354;2023-03-23T20:15:31;14.40;97.40
5027;DHT22;2532;52.480;13.354;2023-03-23T20:18:00;14.40;97.40
5027;DHT22;2532;52.480;13.354;2023-03-23T20:20:27;14.40;97.40
5027;DHT22;2532;52.480;13.354;2023-03-23T20:22:54;14.40;97.40
5027;DHT22;2532;52.480;13.354;2023-03-23T20:25:21;14.40;97.30
5027;DHT22;2532;52.480;13.354;2023-03-23T20:27:48;14.40;97.40
5027;DHT22;2532;52.480;13.354;2023-03-23T20:30:15;14.40;97.40
5027;DHT22;2532;52.480;13.354;2023-03-23T20:32:43;14.50;97.40
5027;DHT22;2532;52.480;13.354;2023-03-23T20:35:12;14.50;97.50
5027;DHT22;2532;52.480;13.354;2023-03-23T20:37:39;14.50;97.40
5027;DHT22;2532;52.480;13.354;2023-03-23T20:40:08;14.50;97.30
5027;DHT22;2532;52.480;13.354;2023-03-23T20:42:37;14.60;97.30
5027;DHT22;2532;52.480;13.354;2023-03-23T20:45:08;14.50;97.20
5027;DHT22;2532;52.480;13.354;2023-03-23T20:47:36;14.50;97.20
5027;DHT22;2532;52.480;13.354;2023-03-23T20:50:03;14.50;97.30
5027;DHT22;2532;52.480;13.354;2023-03-23T20:52:32;14.60;97.30
5027;DHT22;2532;52.480;13.354;2023-03-23T20:55:00;14.50;97.20
5027;DHT22;2532;52.480;13.354;2023-03-23T20:57:27;14.50;97.20
5027;DHT22;2532;52.480;13.354;2023-03-23T20:59:54;14.50;97.20
5027;DHT22;2532;52.480;13.354;2023-03-23T21:02:22;14.50;97.10
5027;DHT22;2532;52.480;13.354;2023-03-23T21:04:50;14.50;97.10
5027;DHT22;2532;52.480;13.354;2023-03-23T21:07:18;14.50;97.10
5027;DHT22;2532;52.480;13.354;2023-03-23T21:09:49;14.50;97.10
5027;DHT22;2532;52.480;13.354;2023-03-23T21:12:16;14.40;97.10
5027;DHT22;2532;52.480;13.354;2023-03-23T21:14:43;14.40;97.10
5027;DHT22;2532;52.480;13.354;2023-03-23T21:17:10;14.40;97.10